Airport ICAO


22:42 UTC

13°C

Overcast


An affordable passengers' Moving Map for your aircraft. Made for the iPad and the iPhone
More information here

LFLB Aix Les Bains


Chambery FRANCE   VFR


METAR LFLB 132230Z AUTO 36005KT 9999 OVC016 13/11 Q1030 0h12min

TAF LFLB 131700Z 1318/1418 36004KT 9999 BKN060 BKN090 BECMG 1318/1321 CAVOK PROB30 TEMPO 1323/1407 4000 BR 5h42min





NOTAMS

OPEN